createdAt,value
2019-02-18T00:00:52.285Z,91.60
2019-02-18T00:03:23.003Z,91.40
2019-02-18T00:05:52.755Z,91.20
2019-02-18T00:08:23.224Z,91.20
2019-02-18T00:10:53.511Z,91.20
2019-02-18T00:13:24.010Z,91.40
2019-02-18T00:15:54.273Z,91.20
2019-02-18T00:18:24.811Z,91.70
2019-02-18T00:20:54.965Z,91.70
2019-02-18T00:23:25.582Z,91.80
2019-02-18T00:25:55.913Z,92.10
2019-02-18T00:28:26.440Z,92.40
2019-02-18T00:30:56.987Z,91.90
2019-02-18T00:33:27.250Z,91.60
2019-02-18T00:35:57.557Z,91.50
2019-02-18T00:38:27.775Z,91.40
2019-02-18T00:40:58.447Z,91.80
2019-02-18T00:43:28.740Z,92.30
2019-02-18T00:45:59.604Z,92.00
2019-02-18T00:48:30.252Z,92.50
2019-02-18T00:51:00.415Z,92.80
2019-02-18T00:53:31.047Z,92.70
2019-02-18T00:56:01.359Z,92.60
2019-02-18T00:58:32.077Z,92.90
2019-02-18T01:01:02.231Z,93.10
2019-02-18T01:03:32.721Z,94.20
2019-02-18T01:06:02.937Z,93.90
2019-02-18T01:08:33.163Z,93.50
2019-02-18T01:11:03.503Z,93.90
2019-02-18T01:13:34.147Z,94.60
2019-02-18T01:16:04.782Z,94.90
2019-02-18T01:18:35.296Z,95.10
2019-02-18T01:21:05.935Z,95.30
2019-02-18T01:23:35.936Z,95.10
2019-02-18T01:26:06.495Z,95.10
2019-02-18T01:28:36.971Z,95.20
2019-02-18T01:31:07.497Z,95.30
2019-02-18T01:33:37.770Z,94.80
2019-02-18T01:36:07.999Z,95.50
2019-02-18T01:38:38.299Z,95.70
2019-02-18T01:41:09.031Z,95.90
2019-02-18T01:43:39.652Z,95.80
2019-02-18T01:46:10.021Z,95.70
2019-02-18T01:48:39.923Z,95.70
2019-02-18T01:51:11.656Z,96.20
2019-02-18T01:53:42.222Z,96.20
2019-02-18T01:56:12.775Z,95.70
2019-02-18T01:58:43.301Z,95.30
2019-02-18T02:01:13.618Z,96.20
2019-02-18T02:03:43.856Z,96.40
2019-02-18T02:06:14.391Z,96.60
2019-02-18T02:08:44.852Z,96.40
2019-02-18T02:11:15.381Z,96.40
2019-02-18T02:13:45.969Z,96.50
2019-02-18T02:16:15.870Z,96.90
2019-02-18T02:18:46.525Z,96.90
2019-02-18T02:21:16.738Z,96.50
2019-02-18T02:23:46.967Z,96.10
2019-02-18T02:26:17.311Z,96.40
2019-02-18T02:28:47.852Z,96.50
2019-02-18T02:31:18.601Z,96.40
2019-02-18T02:33:49.135Z,96.10
2019-02-18T02:36:19.644Z,96.60
2019-02-18T02:38:50.121Z,96.60
2019-02-18T02:41:20.641Z,96.70
2019-02-18T02:43:51.300Z,96.10
2019-02-18T02:46:21.559Z,96.40
2019-02-18T02:48:52.117Z,95.80
2019-02-18T02:51:22.415Z,95.40
2019-02-18T02:53:52.903Z,95.40
2019-02-18T02:56:23.442Z,95.20
2019-02-18T02:58:54.122Z,95.30
2019-02-18T03:01:24.546Z,95.40
2019-02-18T03:03:55.170Z,95.00
2019-02-18T03:06:25.464Z,94.70
2019-02-18T03:08:56.037Z,95.30
2019-02-18T03:11:26.221Z,95.40
2019-02-18T03:13:56.793Z,95.90
2019-02-18T03:16:27.269Z,96.40
2019-02-18T03:18:57.685Z,97.40
2019-02-18T03:21:27.909Z,97.60
2019-02-18T03:23:58.741Z,97.30
2019-02-18T03:26:29.295Z,97.00
2019-02-18T03:29:41.438Z,96.70
2019-02-18T03:32:11.904Z,96.20
2019-02-18T03:34:46.794Z,96.00
2019-02-18T03:37:17.036Z,95.60
2019-02-18T03:39:47.697Z,95.60
2019-02-18T03:42:18.283Z,95.80
2019-02-18T03:44:48.545Z,95.90
2019-02-18T03:47:18.741Z,96.20
2019-02-18T03:49:48.857Z,96.80
2019-02-18T03:52:19.315Z,96.70
2019-02-18T03:54:49.817Z,96.60
2019-02-18T03:57:20.152Z,96.50
2019-02-18T03:59:50.804Z,96.30
2019-02-18T04:02:21.300Z,96.00
2019-02-18T04:04:51.493Z,96.00
2019-02-18T04:07:21.457Z,96.00
2019-02-18T04:09:51.427Z,96.10
2019-02-18T04:12:22.043Z,97.40
2019-02-18T04:14:52.227Z,98.50
2019-02-18T04:17:22.188Z,99.20
2019-02-18T04:19:52.719Z,99.10
2019-02-18T04:22:23.375Z,99.20
2019-02-18T04:24:54.051Z,99.20
2019-02-18T04:27:24.531Z,98.90
2019-02-18T04:29:54.812Z,98.80
2019-02-18T04:32:25.056Z,99.50
2019-02-18T04:34:55.614Z,99.90
2019-02-18T04:37:25.908Z,99.90
2019-02-18T04:39:56.221Z,99.90
2019-02-18T04:42:26.428Z,99.80
2019-02-18T04:44:56.673Z,99.40
2019-02-18T04:47:26.692Z,98.10
2019-02-18T04:49:57.273Z,97.10
2019-02-18T04:52:27.413Z,97.60
2019-02-18T04:54:58.093Z,97.20
2019-02-18T04:57:28.272Z,97.30
2019-02-18T04:59:58.475Z,97.10
2019-02-18T05:02:28.763Z,96.80
2019-02-18T05:04:59.323Z,96.50
2019-02-18T05:07:29.760Z,96.00
2019-02-18T05:10:00.387Z,95.80
2019-02-18T05:12:30.780Z,95.60
2019-02-18T05:15:00.675Z,95.50
2019-02-18T05:17:30.856Z,95.30
2019-02-18T05:20:01.360Z,94.90
2019-02-18T05:22:31.600Z,95.00
2019-02-18T05:25:01.922Z,95.20
2019-02-18T05:27:33.557Z,94.80
2019-02-18T05:30:04.106Z,94.50
2019-02-18T05:32:34.729Z,94.10
2019-02-18T05:35:05.331Z,93.50
2019-02-18T05:37:35.853Z,93.50
2019-02-18T05:40:06.332Z,93.50
2019-02-18T05:42:36.819Z,93.60
2019-02-18T05:45:07.004Z,93.90
2019-02-18T05:47:37.590Z,95.10
2019-02-18T05:50:08.306Z,95.10
2019-02-18T05:52:38.907Z,95.50
2019-02-18T05:55:09.264Z,96.00
2019-02-18T05:57:39.413Z,96.60
2019-02-18T06:00:10.502Z,97.00
2019-02-18T06:02:40.960Z,97.70
2019-02-18T06:05:11.333Z,98.40
2019-02-18T06:07:41.827Z,99.90
2019-02-18T06:10:11.800Z,99.90
2019-02-18T06:12:42.004Z,99.90
2019-02-18T06:15:12.606Z,99.90
2019-02-18T06:17:43.378Z,99.90
2019-02-18T06:20:13.951Z,99.90
2019-02-18T06:22:44.507Z,99.90
2019-02-18T06:25:15.117Z,99.40
2019-02-18T06:27:45.370Z,99.80
2019-02-18T06:30:15.588Z,99.80
2019-02-18T06:32:46.271Z,99.70
2019-02-18T06:35:16.491Z,99.80
2019-02-18T06:37:46.412Z,98.00
2019-02-18T06:40:16.928Z,97.90
2019-02-18T06:42:47.573Z,97.80
2019-02-18T06:45:36.831Z,97.50
2019-02-18T06:48:22.917Z,96.80
2019-02-18T06:50:53.122Z,96.60
2019-02-18T06:53:23.640Z,96.60
2019-02-18T06:55:54.319Z,96.60
2019-02-18T06:58:43.570Z,96.30
2019-02-18T07:01:31.297Z,95.90
2019-02-18T07:04:26.592Z,96.00
2019-02-18T07:07:03.171Z,96.00
2019-02-18T07:09:52.013Z,95.70
2019-02-18T07:12:26.255Z,95.40
2019-02-18T07:14:56.804Z,95.00
2019-02-18T07:17:27.242Z,94.60
2019-02-18T07:19:57.831Z,94.90
2019-02-18T07:22:28.311Z,95.30
2019-02-18T07:24:58.848Z,95.60
2019-02-18T07:27:29.506Z,96.10
2019-02-18T07:30:00.375Z,96.10
2019-02-18T07:32:30.948Z,96.60
2019-02-18T07:35:00.935Z,97.20
2019-02-18T07:37:31.496Z,97.50
2019-02-18T07:40:02.426Z,97.40
2019-02-18T07:42:33.071Z,97.90
2019-02-18T07:45:03.353Z,97.90
2019-02-18T07:47:33.691Z,97.90
2019-02-18T07:50:04.324Z,97.90
2019-02-18T07:52:34.517Z,97.90
2019-02-18T07:55:04.914Z,97.90
2019-02-18T07:57:35.294Z,97.90
2019-02-18T08:00:24.139Z,97.80
2019-02-18T08:02:54.898Z,97.80
2019-02-18T08:05:25.454Z,97.60
2019-02-18T08:07:55.624Z,97.60
2019-02-18T08:10:26.282Z,97.90
2019-02-18T08:12:56.542Z,97.80
2019-02-18T08:15:27.200Z,97.80
2019-02-18T08:17:57.893Z,97.60
2019-02-18T08:20:28.522Z,97.50
2019-02-18T08:22:59.070Z,97.30
2019-02-18T08:25:29.344Z,97.20
2019-02-18T08:28:00.006Z,97.20
2019-02-18T08:30:30.667Z,97.00
2019-02-18T08:33:01.209Z,96.80
2019-02-18T08:35:31.879Z,96.50
2019-02-18T08:38:02.448Z,96.00
2019-02-18T08:40:32.912Z,96.20
2019-02-18T08:43:03.499Z,96.00
2019-02-18T08:45:33.957Z,95.50
2019-02-18T08:48:04.100Z,95.30
2019-02-18T08:50:34.791Z,95.20
2019-02-18T08:53:04.966Z,95.30
2019-02-18T08:55:35.592Z,94.60
2019-02-18T08:58:06.159Z,94.80
2019-02-18T09:00:36.342Z,94.80
2019-02-18T09:03:06.944Z,94.80
2019-02-18T09:05:37.579Z,94.50
2019-02-18T09:08:08.144Z,95.00
2019-02-18T09:10:38.756Z,95.30
2019-02-18T09:13:09.058Z,95.70
2019-02-18T09:15:39.703Z,95.50
2019-02-18T09:18:10.318Z,96.00
2019-02-18T09:20:41.179Z,95.80
2019-02-18T09:23:26.119Z,95.70
2019-02-18T09:25:59.273Z,95.20
2019-02-18T09:28:29.620Z,95.20
2019-02-18T09:30:59.560Z,95.10
2019-02-18T09:33:29.478Z,95.10
2019-02-18T09:35:59.027Z,94.80
2019-02-18T09:38:29.324Z,94.90
2019-02-18T09:40:59.627Z,94.70
2019-02-18T09:43:30.280Z,94.70
2019-02-18T09:46:00.921Z,94.50
2019-02-18T09:48:31.071Z,94.30
2019-02-18T09:51:01.264Z,93.70
2019-02-18T09:53:31.460Z,93.80
2019-02-18T09:56:01.965Z,93.90
2019-02-18T09:58:32.233Z,93.80
2019-02-18T10:01:02.844Z,93.40
2019-02-18T10:03:33.093Z,93.40
2019-02-18T10:06:03.579Z,93.50
2019-02-18T10:08:34.242Z,93.10
2019-02-18T10:11:04.624Z,92.60
2019-02-18T10:13:35.092Z,92.80
2019-02-18T10:16:05.416Z,92.30
2019-02-18T10:18:35.801Z,92.30
2019-02-18T10:21:05.948Z,91.90
2019-02-18T10:23:36.538Z,91.70
2019-02-18T10:26:06.714Z,91.30
2019-02-18T10:28:37.088Z,91.20
2019-02-18T10:31:07.628Z,90.80
2019-02-18T10:33:37.872Z,90.50
2019-02-18T10:36:08.059Z,90.60
2019-02-18T10:38:40.190Z,90.40
2019-02-18T10:41:11.093Z,90.40
2019-02-18T10:43:41.566Z,90.10
2019-02-18T10:46:11.827Z,89.80
2019-02-18T10:48:42.468Z,89.10
2019-02-18T10:51:13.050Z,89.70
2019-02-18T10:53:43.320Z,88.90
2019-02-18T10:56:13.758Z,89.10
2019-02-18T10:58:44.260Z,89.60
2019-02-18T11:01:14.512Z,89.10
2019-02-18T11:03:45.170Z,88.10
2019-02-18T11:06:15.762Z,87.50
2019-02-18T11:08:45.690Z,86.30
2019-02-18T11:11:17.199Z,85.00
2019-02-18T11:13:47.576Z,84.10
2019-02-18T11:16:18.114Z,86.00
2019-02-18T11:18:48.744Z,83.60
2019-02-18T11:21:19.395Z,82.90
2019-02-18T11:23:49.662Z,82.50
2019-02-18T11:26:20.240Z,83.20
2019-02-18T11:28:50.870Z,82.80
2019-02-18T11:31:21.036Z,82.10
2019-02-18T11:33:51.539Z,82.20
2019-02-18T11:36:21.912Z,81.80
2019-02-18T11:38:52.176Z,80.50
2019-02-18T11:41:27.431Z,78.50
2019-02-18T11:43:55.066Z,79.70
2019-02-18T11:46:25.608Z,78.20
2019-02-18T11:48:55.819Z,77.30
2019-02-18T11:51:26.063Z,76.90
2019-02-18T11:53:56.649Z,75.50
2019-02-18T11:56:27.032Z,75.10
2019-02-18T11:58:57.644Z,72.80
2019-02-18T12:01:28.537Z,71.20
2019-02-18T12:03:58.996Z,71.00
2019-02-18T12:06:29.212Z,70.90
2019-02-18T12:08:59.824Z,70.20
2019-02-18T12:11:37.997Z,71.70
2019-02-18T12:14:01.997Z,69.50
2019-02-18T12:16:32.676Z,69.90
2019-02-18T12:19:02.960Z,69.10
2019-02-18T12:21:32.963Z,68.50
2019-02-18T12:24:03.148Z,65.10
2019-02-18T12:26:33.829Z,66.90
2019-02-18T12:29:04.493Z,62.00
2019-02-18T12:31:35.136Z,63.60
2019-02-18T12:34:05.640Z,60.00
2019-02-18T12:36:36.102Z,61.70
2019-02-18T12:39:12.838Z,61.30
2019-02-18T12:41:48.687Z,57.20
2019-02-18T12:44:15.334Z,60.00
2019-02-18T12:46:53.086Z,59.50
2019-02-18T12:49:23.676Z,58.00
2019-02-18T12:51:54.238Z,60.20
2019-02-18T12:54:24.762Z,60.50
2019-02-18T12:56:55.363Z,62.60
2019-02-18T12:59:25.685Z,63.30
2019-02-18T13:01:56.316Z,63.30
2019-02-18T13:04:26.604Z,61.00
2019-02-18T13:06:57.276Z,63.30
2019-02-18T13:09:27.895Z,63.00
2019-02-18T13:11:59.251Z,63.20
2019-02-18T13:14:30.043Z,61.00
2019-02-18T13:17:00.348Z,62.40
2019-02-18T13:19:31.052Z,61.30
2019-02-18T13:22:01.696Z,61.60
2019-02-18T13:24:31.893Z,62.80
2019-02-18T13:27:02.579Z,62.00
2019-02-18T13:29:33.048Z,59.60
2019-02-18T13:32:02.988Z,61.60
2019-02-18T13:34:33.256Z,59.60
2019-02-18T13:37:04.954Z,58.30
2019-02-18T13:39:35.428Z,57.40
2019-02-18T13:42:07.754Z,57.90
2019-02-18T13:44:38.266Z,57.80
2019-02-18T13:47:08.734Z,59.00
2019-02-18T13:49:39.512Z,58.70
2019-02-18T13:52:09.848Z,58.70
2019-02-18T13:54:40.457Z,59.00
2019-02-18T13:57:11.019Z,57.50
2019-02-18T13:59:41.932Z,55.20
2019-02-18T14:02:11.960Z,56.00
2019-02-18T14:04:42.011Z,54.70
2019-02-18T14:07:12.298Z,54.40
2019-02-18T14:09:43.065Z,54.60
2019-02-18T14:12:16.072Z,52.00
2019-02-18T14:14:45.821Z,51.60
2019-02-18T14:17:16.329Z,52.20
2019-02-18T14:19:48.073Z,51.10
2019-02-18T14:22:18.536Z,52.10
2019-02-18T14:24:48.900Z,52.40
2019-02-18T14:27:19.758Z,54.00
2019-02-18T14:29:50.514Z,54.40
2019-02-18T14:32:21.106Z,55.10
2019-02-18T14:34:51.702Z,56.40
2019-02-18T14:37:22.506Z,55.50
2019-02-18T14:39:52.703Z,54.70
2019-02-18T14:42:24.597Z,55.00
2019-02-18T14:44:55.532Z,54.70
2019-02-18T14:47:27.764Z,55.00
2019-02-18T14:49:58.612Z,55.20
2019-02-18T14:52:29.274Z,55.30
2019-02-18T14:54:59.929Z,55.10
2019-02-18T14:57:30.840Z,55.00
2019-02-18T15:00:01.504Z,55.60
2019-02-18T15:02:32.254Z,56.40
2019-02-18T15:05:03.108Z,56.60
2019-02-18T15:07:33.054Z,57.00
2019-02-18T15:10:04.097Z,57.00
2019-02-18T15:12:34.299Z,57.30
2019-02-18T15:15:04.678Z,57.80
2019-02-18T15:17:35.334Z,58.40
2019-02-18T15:20:05.638Z,58.80
2019-02-18T15:22:36.373Z,58.70
2019-02-18T15:25:07.036Z,57.70
2019-02-18T15:27:37.272Z,57.10
2019-02-18T15:30:08.044Z,56.40
2019-02-18T15:32:38.328Z,57.00
2019-02-18T15:35:09.060Z,56.90
2019-02-18T15:37:39.360Z,57.50
2019-02-18T15:40:10.200Z,57.20
2019-02-18T15:42:42.567Z,57.90
2019-02-18T15:45:12.948Z,57.30
2019-02-18T15:47:43.618Z,56.80
2019-02-18T15:50:15.007Z,55.80
2019-02-18T15:52:45.718Z,55.50
2019-02-18T15:55:16.188Z,54.30
2019-02-18T15:57:46.826Z,54.20
2019-02-18T16:00:21.741Z,54.70
2019-02-18T16:02:52.301Z,55.20
2019-02-18T16:05:23.055Z,55.80
2019-02-18T16:07:53.715Z,56.30
2019-02-18T16:10:24.027Z,56.60
2019-02-18T16:12:54.369Z,57.80
2019-02-18T16:15:25.260Z,57.80
2019-02-18T16:17:55.120Z,58.70
2019-02-18T16:20:25.532Z,59.30
2019-02-18T16:22:56.223Z,59.50
2019-02-18T16:25:26.918Z,59.50
2019-02-18T16:27:57.510Z,61.40
2019-02-18T16:30:28.163Z,61.20
2019-02-18T16:32:58.756Z,58.40
2019-02-18T16:35:29.250Z,57.80
2019-02-18T16:37:59.870Z,57.40
2019-02-18T16:40:30.628Z,58.30
2019-02-18T16:43:00.952Z,58.70
2019-02-18T16:45:31.531Z,58.80
2019-02-18T16:48:02.637Z,58.60
2019-02-18T16:50:33.529Z,60.00
2019-02-18T16:53:03.737Z,59.50
2019-02-18T16:55:34.430Z,58.20
2019-02-18T16:58:04.759Z,57.60
2019-02-18T17:00:35.268Z,57.50
2019-02-18T17:03:06.036Z,57.50
2019-02-18T17:05:36.603Z,57.30
2019-02-18T17:08:07.227Z,56.50
2019-02-18T17:10:37.432Z,57.60
2019-02-18T17:13:08.626Z,57.40
2019-02-18T17:15:38.788Z,57.60
2019-02-18T17:18:09.440Z,57.60
2019-02-18T17:20:40.016Z,58.20
2019-02-18T17:23:10.692Z,57.50
2019-02-18T17:25:41.016Z,57.50
2019-02-18T17:28:10.945Z,58.10
2019-02-18T17:30:41.616Z,58.80
2019-02-18T17:33:12.006Z,58.60
2019-02-18T17:35:42.499Z,60.00
2019-02-18T17:38:13.080Z,60.70
2019-02-18T17:40:43.562Z,60.30
2019-02-18T17:43:16.446Z,59.40
2019-02-18T17:45:46.128Z,59.50
2019-02-18T17:48:16.473Z,59.80
2019-02-18T17:50:48.600Z,61.10
2019-02-18T17:53:18.918Z,59.60
2019-02-18T17:55:49.490Z,60.00
2019-02-18T17:58:20.202Z,59.20
2019-02-18T18:00:53.642Z,60.10
2019-02-18T18:03:24.522Z,60.40
2019-02-18T18:05:55.016Z,61.70
2019-02-18T18:08:25.531Z,63.20
2019-02-18T18:10:55.924Z,60.90
2019-02-18T18:13:26.486Z,60.80
2019-02-18T18:15:57.135Z,61.20
2019-02-18T18:18:27.820Z,61.90
2019-02-18T18:20:57.426Z,61.80
2019-02-18T18:23:27.758Z,63.10
2019-02-18T18:25:58.112Z,60.50
2019-02-18T18:28:28.718Z,59.70
2019-02-18T18:30:59.711Z,62.40
2019-02-18T18:33:30.391Z,62.20
2019-02-18T18:36:00.944Z,62.40
2019-02-18T18:38:30.769Z,61.00
2019-02-18T18:41:01.486Z,60.10
2019-02-18T18:43:34.071Z,61.00
2019-02-18T18:46:04.288Z,60.40
2019-02-18T18:48:34.890Z,60.20
2019-02-18T18:51:06.900Z,60.10
2019-02-18T18:53:37.110Z,61.40
2019-02-18T18:56:07.693Z,64.50
2019-02-18T18:58:37.665Z,62.60
2019-02-18T19:01:08.340Z,62.20
2019-02-18T19:03:38.562Z,60.10
2019-02-18T19:06:09.274Z,60.10
2019-02-18T19:08:38.769Z,62.40
2019-02-18T19:11:08.683Z,63.40
2019-02-18T19:13:42.136Z,64.00
2019-02-18T19:16:11.328Z,65.70
2019-02-18T19:18:42.473Z,66.10
2019-02-18T19:21:13.098Z,66.90
2019-02-18T19:23:43.754Z,68.30
2019-02-18T19:26:14.122Z,69.10
2019-02-18T19:28:44.240Z,69.60
2019-02-18T19:31:14.854Z,64.80
2019-02-18T19:33:45.106Z,63.40
2019-02-18T19:36:15.633Z,62.80
2019-02-18T19:38:46.228Z,63.00
2019-02-18T19:41:16.450Z,62.10
2019-02-18T19:43:50.301Z,64.60
2019-02-18T19:46:19.258Z,64.10
2019-02-18T19:48:50.228Z,65.80
2019-02-18T19:51:20.457Z,66.00
2019-02-18T19:53:51.134Z,66.20
2019-02-18T19:56:21.752Z,66.00
2019-02-18T19:58:52.324Z,67.50
2019-02-18T20:01:22.994Z,67.10
2019-02-18T20:03:53.230Z,66.80
2019-02-18T20:06:23.520Z,65.90
2019-02-18T20:08:53.772Z,67.50
2019-02-18T20:11:24.366Z,67.40
2019-02-18T20:13:58.960Z,66.80
2019-02-18T20:16:27.182Z,66.80
2019-02-18T20:18:57.266Z,67.40
2019-02-18T20:21:27.562Z,68.30
2019-02-18T20:23:57.892Z,69.20
2019-02-18T20:26:28.227Z,69.50
2019-02-18T20:28:59.214Z,69.10
2019-02-18T20:31:29.840Z,68.70
2019-02-18T20:34:00.448Z,68.60
2019-02-18T20:36:31.065Z,69.90
2019-02-18T20:39:01.816Z,70.10
2019-02-18T20:41:32.591Z,69.80
2019-02-18T20:44:07.432Z,70.10
2019-02-18T20:46:54.282Z,71.70
2019-02-18T20:49:24.537Z,71.30
2019-02-18T20:51:55.354Z,70.60
2019-02-18T20:54:25.712Z,71.20
2019-02-18T20:56:56.260Z,72.20
2019-02-18T20:59:26.506Z,72.20
2019-02-18T21:01:57.288Z,73.20
2019-02-18T21:04:27.904Z,74.20
2019-02-18T21:06:58.569Z,74.50
2019-02-18T21:09:28.672Z,74.10
2019-02-18T21:11:58.547Z,74.90
2019-02-18T21:14:29.058Z,75.30
2019-02-18T21:16:59.644Z,75.00
2019-02-18T21:19:30.196Z,74.60
2019-02-18T21:22:00.390Z,74.50
2019-02-18T21:24:30.724Z,74.00
2019-02-18T21:27:01.282Z,74.10
2019-02-18T21:29:31.694Z,74.70
2019-02-18T21:32:02.524Z,74.20
2019-02-18T21:34:33.060Z,74.60
2019-02-18T21:37:03.538Z,74.70
2019-02-18T21:39:33.796Z,75.30
2019-02-18T21:42:04.146Z,76.20
2019-02-18T21:44:34.792Z,77.00
2019-02-18T21:47:05.100Z,76.80
2019-02-18T21:49:35.618Z,77.50
2019-02-18T21:52:06.244Z,78.40
2019-02-18T21:54:36.814Z,77.50
2019-02-18T21:57:07.016Z,76.80
2019-02-18T21:59:37.244Z,76.90
2019-02-18T22:02:07.714Z,77.70
2019-02-18T22:04:38.264Z,78.10
2019-02-18T22:07:08.405Z,78.60
2019-02-18T22:09:39.044Z,78.90
2019-02-18T22:12:09.949Z,79.10
2019-02-18T22:14:40.666Z,78.40
2019-02-18T22:17:10.830Z,80.40
2019-02-18T22:19:41.456Z,80.20
2019-02-18T22:22:11.828Z,80.00
2019-02-18T22:24:42.470Z,80.60
2019-02-18T22:27:13.288Z,80.00
2019-02-18T22:29:43.900Z,79.90
2019-02-18T22:32:14.138Z,80.50
2019-02-18T22:34:44.371Z,81.40
2019-02-18T22:37:15.034Z,81.40
2019-02-18T22:39:45.248Z,81.30
2019-02-18T22:42:15.466Z,80.90
2019-02-18T22:44:45.838Z,82.10
2019-02-18T22:47:15.972Z,82.30
2019-02-18T22:49:46.262Z,83.10
2019-02-18T22:52:16.078Z,84.20
2019-02-18T22:54:46.726Z,83.60
2019-02-18T22:57:17.348Z,83.80
2019-02-18T22:59:48.007Z,83.40
2019-02-18T23:02:18.394Z,83.40
2019-02-18T23:04:48.742Z,83.70
2019-02-18T23:07:19.186Z,84.00
2019-02-18T23:09:50.094Z,84.40
2019-02-18T23:12:20.686Z,84.70
2019-02-18T23:14:51.260Z,85.30
2019-02-18T23:17:21.828Z,84.80
2019-02-18T23:19:52.350Z,84.50
2019-02-18T23:22:22.851Z,83.70
2019-02-18T23:24:53.758Z,83.90
2019-02-18T23:27:24.326Z,84.60
2019-02-18T23:29:54.814Z,85.30
2019-02-18T23:32:25.067Z,85.00
2019-02-18T23:34:55.611Z,86.30
2019-02-18T23:37:26.002Z,85.90
2019-02-18T23:39:56.226Z,86.50
2019-02-18T23:42:26.756Z,87.20
2019-02-18T23:44:59.257Z,87.00
2019-02-18T23:47:29.198Z,88.60
2019-02-18T23:49:59.643Z,89.30
2019-02-18T23:52:30.092Z,89.00
2019-02-18T23:55:00.640Z,88.50
2019-02-18T23:57:42.288Z,88.50
